sensor_id;sensor_type;location;lat;lon;timestamp;temperature;humidity
6118;DHT22;3089;48.202;11.510;2022-08-01T00:00:59;22.40;95.50
6118;DHT22;3089;48.202;11.510;2022-08-01T00:03:27;22.40;95.40
6118;DHT22;3089;48.202;11.510;2022-08-01T00:05:55;22.40;95.40
6118;DHT22;3089;48.202;11.510;2022-08-01T00:08:22;22.50;95.40
6118;DHT22;3089;48.202;11.510;2022-08-01T00:10:50;22.50;95.40
6118;DHT22;3089;48.202;11.510;2022-08-01T00:13:18;22.50;95.40
6118;DHT22;3089;48.202;11.510;2022-08-01T00:15:46;22.50;95.40
6118;DHT22;3089;48.202;11.510;2022-08-01T00:18:21;22.50;95.50
6118;DHT22;3089;48.202;11.510;2022-08-01T00:20:49;22.40;95.50
6118;DHT22;3089;48.202;11.510;2022-08-01T00:23:17;22.40;95.60
6118;DHT22;3089;48.202;11.510;2022-08-01T00:25:45;22.40;95.60
6118;DHT22;3089;48.202;11.510;2022-08-01T00:28:13;22.40;95.70
6118;DHT22;3089;48.202;11.510;2022-08-01T00:30:40;22.30;95.70
6118;DHT22;3089;48.202;11.510;2022-08-01T00:33:08;22.30;95.80
6118;DHT22;3089;48.202;11.510;2022-08-01T00:35:38;22.30;95.80
6118;DHT22;3089;48.202;11.510;2022-08-01T00:38:05;22.30;95.90
6118;DHT22;3089;48.202;11.510;2022-08-01T00:40:33;22.20;95.90
6118;DHT22;3089;48.202;11.510;2022-08-01T00:43:01;22.20;96.00
6118;DHT22;3089;48.202;11.510;2022-08-01T00:45:29;22.20;96.00
6118;DHT22;3089;48.202;11.510;2022-08-01T00:47:57;22.20;96.00
6118;DHT22;3089;48.202;11.510;2022-08-01T00:50:25;22.10;96.10
6118;DHT22;3089;48.202;11.510;2022-08-01T00:52:55;22.10;96.00
6118;DHT22;3089;48.202;11.510;2022-08-01T00:55:23;22.10;96.10
6118;DHT22;3089;48.202;11.510;2022-08-01T00:57:51;22.00;96.20
6118;DHT22;3089;48.202;11.510;2022-08-01T01:00:33;21.90;96.40
6118;DHT22;3089;48.202;11.510;2022-08-01T01:03:21;22.10;96.10
6118;DHT22;3089;48.202;11.510;2022-08-01T01:06:15;21.90;96.30
6118;DHT22;3089;48.202;11.510;2022-08-01T01:08:50;21.90;96.20
6118;DHT22;3089;48.202;11.510;2022-08-01T01:11:25;21.90;96.20
6118;DHT22;3089;48.202;11.510;2022-08-01T01:13:59;21.90;96.30
6118;DHT22;3089;48.202;11.510;2022-08-01T01:16:30;21.90;96.30
6118;DHT22;3089;48.202;11.510;2022-08-01T01:19:02;21.80;96.40
6118;DHT22;3089;48.202;11.510;2022-08-01T01:21:45;21.70;96.40
6118;DHT22;3089;48.202;11.510;2022-08-01T01:24:25;21.80;96.40
6118;DHT22;3089;48.202;11.510;2022-08-01T01:27:01;21.80;96.40
6118;DHT22;3089;48.202;11.510;2022-08-01T01:29:37;21.80;96.40
6118;DHT22;3089;48.202;11.510;2022-08-01T01:32:30;21.80;96.40
6118;DHT22;3089;48.202;11.510;2022-08-01T01:35:03;21.70;96.50
6118;DHT22;3089;48.202;11.510;2022-08-01T01:37:33;21.70;96.40
6118;DHT22;3089;48.202;11.510;2022-08-01T01:40:02;21.80;96.40
6118;DHT22;3089;48.202;11.510;2022-08-01T01:42:32;21.80;96.40
6118;DHT22;3089;48.202;11.510;2022-08-01T01:45:04;21.80;96.40
6118;DHT22;3089;48.202;11.510;2022-08-01T01:47:33;21.70;96.30
6118;DHT22;3089;48.202;11.510;2022-08-01T01:50:03;21.70;96.30
6118;DHT22;3089;48.202;11.510;2022-08-01T01:52:33;21.70;96.40
6118;DHT22;3089;48.202;11.510;2022-08-01T01:55:06;21.70;96.40
6118;DHT22;3089;48.202;11.510;2022-08-01T01:57:37;21.70;96.30
6118;DHT22;3089;48.202;11.510;2022-08-01T02:00:10;21.60;96.30
6118;DHT22;3089;48.202;11.510;2022-08-01T02:02:39;21.70;96.30
6118;DHT22;3089;48.202;11.510;2022-08-01T02:05:10;21.60;96.30
6118;DHT22;3089;48.202;11.510;2022-08-01T02:07:39;21.60;96.40
6118;DHT22;3089;48.202;11.510;2022-08-01T02:10:10;21.60;96.30
6118;DHT22;3089;48.202;11.510;2022-08-01T02:12:41;21.50;96.30
6118;DHT22;3089;48.202;11.510;2022-08-01T02:15:14;21.50;96.30
6118;DHT22;3089;48.202;11.510;2022-08-01T02:17:44;21.40;96.40
6118;DHT22;3089;48.202;11.510;2022-08-01T02:20:13;21.40;96.40
6118;DHT22;3089;48.202;11.510;2022-08-01T02:22:46;21.40;96.40
6118;DHT22;3089;48.202;11.510;2022-08-01T02:25:20;21.40;96.50
6118;DHT22;3089;48.202;11.510;2022-08-01T02:27:52;21.40;96.40
6118;DHT22;3089;48.202;11.510;2022-08-01T02:30:24;21.30;96.50
6118;DHT22;3089;48.202;11.510;2022-08-01T02:32:59;21.40;96.50
6118;DHT22;3089;48.202;11.510;2022-08-01T02:35:32;21.30;96.50
6118;DHT22;3089;48.202;11.510;2022-08-01T02:38:23;21.30;96.50
6118;DHT22;3089;48.202;11.510;2022-08-01T02:40:52;21.40;96.40
6118;DHT22;3089;48.202;11.510;2022-08-01T02:43:26;21.20;96.50
6118;DHT22;3089;48.202;11.510;2022-08-01T02:46:01;21.30;96.50
6118;DHT22;3089;48.202;11.510;2022-08-01T02:48:30;21.10;96.50
6118;DHT22;3089;48.202;11.510;2022-08-01T02:51:01;21.20;96.50
6118;DHT22;3089;48.202;11.510;2022-08-01T02:53:32;21.20;96.40
6118;DHT22;3089;48.202;11.510;2022-08-01T02:56:12;21.30;96.30
6118;DHT22;3089;48.202;11.510;2022-08-01T02:58:41;21.20;96.40
6118;DHT22;3089;48.202;11.510;2022-08-01T03:01:14;21.20;96.40
6118;DHT22;3089;48.202;11.510;2022-08-01T03:03:45;21.20;96.40
6118;DHT22;3089;48.202;11.510;2022-08-01T03:06:15;21.10;96.40
6118;DHT22;3089;48.202;11.510;2022-08-01T03:08:45;21.10;96.30
6118;DHT22;3089;48.202;11.510;2022-08-01T03:11:15;21.10;96.40
6118;DHT22;3089;48.202;11.510;2022-08-01T03:13:44;21.20;96.40
6118;DHT22;3089;48.202;11.510;2022-08-01T03:16:15;21.20;96.30
6118;DHT22;3089;48.202;11.510;2022-08-01T03:18:44;21.20;96.60
6118;DHT22;3089;48.202;11.510;2022-08-01T03:21:13;21.10;96.30
6118;DHT22;3089;48.202;11.510;2022-08-01T03:23:42;21.10;96.40
6118;DHT22;3089;48.202;11.510;2022-08-01T03:26:10;21.10;96.30
6118;DHT22;3089;48.202;11.510;2022-08-01T03:28:40;21.10;96.30
6118;DHT22;3089;48.202;11.510;2022-08-01T03:31:10;21.00;96.30
6118;DHT22;3089;48.202;11.510;2022-08-01T03:33:39;21.00;96.30
6118;DHT22;3089;48.202;11.510;2022-08-01T03:36:09;21.00;96.40
6118;DHT22;3089;48.202;11.510;2022-08-01T03:38:39;20.90;96.30
6118;DHT22;3089;48.202;11.510;2022-08-01T03:41:11;20.90;96.50
6118;DHT22;3089;48.202;11.510;2022-08-01T03:43:43;20.90;96.50
6118;DHT22;3089;48.202;11.510;2022-08-01T03:46:17;20.90;96.50
6118;DHT22;3089;48.202;11.510;2022-08-01T03:48:48;20.80;96.50
6118;DHT22;3089;48.202;11.510;2022-08-01T03:51:19;20.80;96.60
6118;DHT22;3089;48.202;11.510;2022-08-01T03:53:49;20.80;96.60
6118;DHT22;3089;48.202;11.510;2022-08-01T03:56:18;20.80;96.60
6118;DHT22;3089;48.202;11.510;2022-08-01T03:58:47;20.80;96.50
6118;DHT22;3089;48.202;11.510;2022-08-01T04:01:17;20.80;96.60
6118;DHT22;3089;48.202;11.510;2022-08-01T04:03:45;20.70;96.60
6118;DHT22;3089;48.202;11.510;2022-08-01T04:06:15;20.70;96.60
6118;DHT22;3089;48.202;11.510;2022-08-01T04:08:43;20.80;96.50
6118;DHT22;3089;48.202;11.510;2022-08-01T04:11:23;20.80;96.60
6118;DHT22;3089;48.202;11.510;2022-08-01T04:13:52;20.80;96.50
6118;DHT22;3089;48.202;11.510;2022-08-01T04:16:21;20.80;96.50
6118;DHT22;3089;48.202;11.510;2022-08-01T04:18:49;20.70;96.50
6118;DHT22;3089;48.202;11.510;2022-08-01T04:21:27;20.70;96.60
6118;DHT22;3089;48.202;11.510;2022-08-01T04:24:00;20.80;96.40
6118;DHT22;3089;48.202;11.510;2022-08-01T04:26:30;20.80;96.80
6118;DHT22;3089;48.202;11.510;2022-08-01T04:29:00;20.80;96.50
6118;DHT22;3089;48.202;11.510;2022-08-01T04:31:30;20.70;96.50
6118;DHT22;3089;48.202;11.510;2022-08-01T04:33:59;20.70;96.50
6118;DHT22;3089;48.202;11.510;2022-08-01T04:36:33;20.70;96.60
6118;DHT22;3089;48.202;11.510;2022-08-01T04:39:04;20.80;96.40
6118;DHT22;3089;48.202;11.510;2022-08-01T04:41:33;20.80;96.40
6118;DHT22;3089;48.202;11.510;2022-08-01T04:44:02;20.80;96.40
6118;DHT22;3089;48.202;11.510;2022-08-01T04:46:32;20.80;96.40
6118;DHT22;3089;48.202;11.510;2022-08-01T04:49:01;20.80;96.40
6118;DHT22;3089;48.202;11.510;2022-08-01T04:51:31;20.80;96.40
6118;DHT22;3089;48.202;11.510;2022-08-01T04:53:58;21.10;96.00
6118;DHT22;3089;48.202;11.510;2022-08-01T04:56:27;21.40;95.70
6118;DHT22;3089;48.202;11.510;2022-08-01T04:58:55;22.30;95.00
6118;DHT22;3089;48.202;11.510;2022-08-01T05:01:48;22.70;94.20
6118;DHT22;3089;48.202;11.510;2022-08-01T05:04:17;23.00;93.60
6118;DHT22;3089;48.202;11.510;2022-08-01T05:06:46;23.10;93.60
6118;DHT22;3089;48.202;11.510;2022-08-01T05:09:14;23.30;93.10
6118;DHT22;3089;48.202;11.510;2022-08-01T05:11:42;23.10;93.20
6118;DHT22;3089;48.202;11.510;2022-08-01T05:14:10;23.10;93.20
6118;DHT22;3089;48.202;11.510;2022-08-01T05:16:38;22.50;94.00
6118;DHT22;3089;48.202;11.510;2022-08-01T05:19:06;22.70;93.90
6118;DHT22;3089;48.202;11.510;2022-08-01T05:21:34;22.40;94.10
6118;DHT22;3089;48.202;11.510;2022-08-01T05:24:04;22.10;94.40
6118;DHT22;3089;48.202;11.510;2022-08-01T05:26:32;22.60;94.00
6118;DHT22;3089;48.202;11.510;2022-08-01T05:29:02;23.10;93.30
6118;DHT22;3089;48.202;11.510;2022-08-01T05:31:30;22.90;93.40
6118;DHT22;3089;48.202;11.510;2022-08-01T05:34:00;22.80;93.70
6118;DHT22;3089;48.202;11.510;2022-08-01T05:36:28;23.10;93.50
6118;DHT22;3089;48.202;11.510;2022-08-01T05:38:56;23.30;94.30
6118;DHT22;3089;48.202;11.510;2022-08-01T05:41:25;24.40;91.90
6118;DHT22;3089;48.202;11.510;2022-08-01T05:43:54;24.00;91.90
6118;DHT22;3089;48.202;11.510;2022-08-01T05:46:22;24.30;91.90
6118;DHT22;3089;48.202;11.510;2022-08-01T05:48:53;24.50;91.90
6118;DHT22;3089;48.202;11.510;2022-08-01T05:51:21;24.10;92.00
6118;DHT22;3089;48.202;11.510;2022-08-01T05:53:49;24.30;92.00
6118;DHT22;3089;48.202;11.510;2022-08-01T05:56:17;24.70;91.60
6118;DHT22;3089;48.202;11.510;2022-08-01T05:58:46;24.80;91.60
6118;DHT22;3089;48.202;11.510;2022-08-01T06:01:14;25.00;91.70
6118;DHT22;3089;48.202;11.510;2022-08-01T06:03:42;24.70;91.70
6118;DHT22;3089;48.202;11.510;2022-08-01T06:06:10;25.10;91.50
6118;DHT22;3089;48.202;11.510;2022-08-01T06:08:38;25.60;91.10
6118;DHT22;3089;48.202;11.510;2022-08-01T06:11:06;25.40;91.30
6118;DHT22;3089;48.202;11.510;2022-08-01T06:13:34;25.60;91.30
6118;DHT22;3089;48.202;11.510;2022-08-01T06:16:16;25.10;92.00
6118;DHT22;3089;48.202;11.510;2022-08-01T06:18:44;25.40;91.80
6118;DHT22;3089;48.202;11.510;2022-08-01T06:21:12;25.90;91.30
6118;DHT22;3089;48.202;11.510;2022-08-01T06:23:39;26.20;91.00
6118;DHT22;3089;48.202;11.510;2022-08-01T06:26:09;27.00;90.30
6118;DHT22;3089;48.202;11.510;2022-08-01T06:28:37;27.30;90.10
6118;DHT22;3089;48.202;11.510;2022-08-01T06:31:05;26.80;91.00
6118;DHT22;3089;48.202;11.510;2022-08-01T06:33:34;27.70;90.20
6118;DHT22;3089;48.202;11.510;2022-08-01T06:36:02;27.00;90.20
6118;DHT22;3089;48.202;11.510;2022-08-01T06:38:30;27.90;88.20
6118;DHT22;3089;48.202;11.510;2022-08-01T06:40:58;27.40;88.20
6118;DHT22;3089;48.202;11.510;2022-08-01T06:43:26;27.60;88.80
6118;DHT22;3089;48.202;11.510;2022-08-01T06:45:54;27.80;87.50
6118;DHT22;3089;48.202;11.510;2022-08-01T06:48:22;27.60;86.90
6118;DHT22;3089;48.202;11.510;2022-08-01T06:50:51;28.40;86.90
6118;DHT22;3089;48.202;11.510;2022-08-01T06:53:35;29.80;83.60
6118;DHT22;3089;48.202;11.510;2022-08-01T06:56:04;29.60;82.80
6118;DHT22;3089;48.202;11.510;2022-08-01T06:58:32;28.60;84.60
6118;DHT22;3089;48.202;11.510;2022-08-01T07:01:01;29.00;84.10
6118;DHT22;3089;48.202;11.510;2022-08-01T07:03:31;29.70;82.40
6118;DHT22;3089;48.202;11.510;2022-08-01T07:06:20;29.30;83.00
6118;DHT22;3089;48.202;11.510;2022-08-01T07:08:48;29.50;83.20
6118;DHT22;3089;48.202;11.510;2022-08-01T07:11:16;29.80;82.60
6118;DHT22;3089;48.202;11.510;2022-08-01T07:13:44;31.30;80.30
6118;DHT22;3089;48.202;11.510;2022-08-01T07:16:13;30.00;81.80
6118;DHT22;3089;48.202;11.510;2022-08-01T07:18:41;28.70;84.10
6118;DHT22;3089;48.202;11.510;2022-08-01T07:21:11;29.00;83.30
6118;DHT22;3089;48.202;11.510;2022-08-01T07:24:00;29.10;83.00
6118;DHT22;3089;48.202;11.510;2022-08-01T07:26:39;29.80;82.40
6118;DHT22;3089;48.202;11.510;2022-08-01T07:29:18;27.90;84.80
6118;DHT22;3089;48.202;11.510;2022-08-01T07:31:46;27.00;87.70
6118;DHT22;3089;48.202;11.510;2022-08-01T07:34:14;26.10;90.50
6118;DHT22;3089;48.202;11.510;2022-08-01T07:36:42;25.80;90.30
6118;DHT22;3089;48.202;11.510;2022-08-01T07:39:11;25.50;90.70
6118;DHT22;3089;48.202;11.510;2022-08-01T07:41:39;25.60;90.70
6118;DHT22;3089;48.202;11.510;2022-08-01T07:44:27;26.50;90.30
6118;DHT22;3089;48.202;11.510;2022-08-01T07:46:55;27.00;88.60
6118;DHT22;3089;48.202;11.510;2022-08-01T07:49:23;25.80;91.60
6118;DHT22;3089;48.202;11.510;2022-08-01T07:51:51;25.40;91.10
6118;DHT22;3089;48.202;11.510;2022-08-01T07:54:40;25.20;91.40
6118;DHT22;3089;48.202;11.510;2022-08-01T07:57:08;25.30;91.40
6118;DHT22;3089;48.202;11.510;2022-08-01T07:59:36;25.50;91.20
6118;DHT22;3089;48.202;11.510;2022-08-01T08:02:04;25.50;91.30
6118;DHT22;3089;48.202;11.510;2022-08-01T08:04:32;25.30;92.10
6118;DHT22;3089;48.202;11.510;2022-08-01T08:07:00;25.40;91.60
6118;DHT22;3089;48.202;11.510;2022-08-01T08:09:29;25.20;92.40
6118;DHT22;3089;48.202;11.510;2022-08-01T08:12:05;25.30;91.50
6118;DHT22;3089;48.202;11.510;2022-08-01T08:14:34;25.20;91.70
6118;DHT22;3089;48.202;11.510;2022-08-01T08:17:02;24.70;92.20
6118;DHT22;3089;48.202;11.510;2022-08-01T08:19:31;24.80;92.10
6118;DHT22;3089;48.202;11.510;2022-08-01T08:22:03;25.00;91.90
6118;DHT22;3089;48.202;11.510;2022-08-01T08:24:35;24.80;93.10
6118;DHT22;3089;48.202;11.510;2022-08-01T08:27:14;24.60;92.40
6118;DHT22;3089;48.202;11.510;2022-08-01T08:29:42;24.90;92.30
6118;DHT22;3089;48.202;11.510;2022-08-01T08:32:11;24.80;92.20
6118;DHT22;3089;48.202;11.510;2022-08-01T08:34:38;24.90;93.10
6118;DHT22;3089;48.202;11.510;2022-08-01T08:37:07;24.60;92.50
6118;DHT22;3089;48.202;11.510;2022-08-01T08:39:35;24.80;92.50
6118;DHT22;3089;48.202;11.510;2022-08-01T08:42:08;24.70;92.60
6118;DHT22;3089;48.202;11.510;2022-08-01T08:44:39;24.60;92.70
6118;DHT22;3089;48.202;11.510;2022-08-01T08:47:11;24.30;93.00
6118;DHT22;3089;48.202;11.510;2022-08-01T08:49:46;24.40;93.00
6118;DHT22;3089;48.202;11.510;2022-08-01T08:52:15;24.30;93.10
6118;DHT22;3089;48.202;11.510;2022-08-01T08:54:46;24.50;92.90
6118;DHT22;3089;48.202;11.510;2022-08-01T08:57:14;24.80;93.10
6118;DHT22;3089;48.202;11.510;2022-08-01T08:59:44;25.00;92.40
6118;DHT22;3089;48.202;11.510;2022-08-01T09:02:13;24.50;93.00
6118;DHT22;3089;48.202;11.510;2022-08-01T09:04:41;24.20;93.60
6118;DHT22;3089;48.202;11.510;2022-08-01T09:07:09;24.40;94.40
6118;DHT22;3089;48.202;11.510;2022-08-01T09:09:38;24.50;93.40
6118;DHT22;3089;48.202;11.510;2022-08-01T09:12:08;24.20;94.00
6118;DHT22;3089;48.202;11.510;2022-08-01T09:14:46;24.20;93.60
6118;DHT22;3089;48.202;11.510;2022-08-01T09:17:14;24.30;93.50
6118;DHT22;3089;48.202;11.510;2022-08-01T09:19:44;24.40;93.40
6118;DHT22;3089;48.202;11.510;2022-08-01T09:22:16;24.50;93.20
6118;DHT22;3089;48.202;11.510;2022-08-01T09:24:58;24.40;93.40
6118;DHT22;3089;48.202;11.510;2022-08-01T09:27:26;24.60;94.00
6118;DHT22;3089;48.202;11.510;2022-08-01T09:30:07;24.60;93.10
6118;DHT22;3089;48.202;11.510;2022-08-01T09:32:49;25.40;92.40
6118;DHT22;3089;48.202;11.510;2022-08-01T09:35:24;26.00;91.60
6118;DHT22;3089;48.202;11.510;2022-08-01T09:38:11;26.30;91.70
6118;DHT22;3089;48.202;11.510;2022-08-01T09:40:47;25.90;91.60
6118;DHT22;3089;48.202;11.510;2022-08-01T09:43:16;26.30;91.20
6118;DHT22;3089;48.202;11.510;2022-08-01T09:45:46;26.90;90.50
6118;DHT22;3089;48.202;11.510;2022-08-01T09:48:16;27.10;90.30
6118;DHT22;3089;48.202;11.510;2022-08-01T09:50:46;26.80;90.50
6118;DHT22;3089;48.202;11.510;2022-08-01T09:53:16;27.00;90.20
6118;DHT22;3089;48.202;11.510;2022-08-01T09:56:09;27.00;90.20
6118;DHT22;3089;48.202;11.510;2022-08-01T09:58:49;27.40;90.00
6118;DHT22;3089;48.202;11.510;2022-08-01T10:01:26;27.30;90.30
6118;DHT22;3089;48.202;11.510;2022-08-01T10:04:06;27.30;90.20
6118;DHT22;3089;48.202;11.510;2022-08-01T10:06:36;27.10;90.90
6118;DHT22;3089;48.202;11.510;2022-08-01T10:09:04;27.10;90.50
6118;DHT22;3089;48.202;11.510;2022-08-01T10:11:33;26.70;90.70
6118;DHT22;3089;48.202;11.510;2022-08-01T10:14:05;26.70;90.70
6118;DHT22;3089;48.202;11.510;2022-08-01T10:16:36;26.80;90.70
6118;DHT22;3089;48.202;11.510;2022-08-01T10:19:06;26.70;92.30
6118;DHT22;3089;48.202;11.510;2022-08-01T10:21:41;26.50;91.00
6118;DHT22;3089;48.202;11.510;2022-08-01T10:24:27;26.30;91.00
6118;DHT22;3089;48.202;11.510;2022-08-01T10:26:59;26.30;91.30
6118;DHT22;3089;48.202;11.510;2022-08-01T10:29:43;26.60;91.10
6118;DHT22;3089;48.202;11.510;2022-08-01T10:32:35;26.50;91.20
6118;DHT22;3089;48.202;11.510;2022-08-01T10:35:07;26.80;90.80
6118;DHT22;3089;48.202;11.510;2022-08-01T10:37:41;27.00;90.70
6118;DHT22;3089;48.202;11.510;2022-08-01T10:40:19;26.60;90.90
6118;DHT22;3089;48.202;11.510;2022-08-01T10:43:02;26.60;90.40
6118;DHT22;3089;48.202;11.510;2022-08-01T10:45:31;26.70;90.80
6118;DHT22;3089;48.202;11.510;2022-08-01T10:48:05;26.60;91.10
6118;DHT22;3089;48.202;11.510;2022-08-01T10:50:40;26.60;91.40
6118;DHT22;3089;48.202;11.510;2022-08-01T10:53:11;26.20;91.50
6118;DHT22;3089;48.202;11.510;2022-08-01T10:55:50;26.70;91.20
6118;DHT22;3089;48.202;11.510;2022-08-01T10:58:26;27.10;91.20
6118;DHT22;3089;48.202;11.510;2022-08-01T11:01:15;26.50;91.10
6118;DHT22;3089;48.202;11.510;2022-08-01T11:04:02;26.40;91.20
6118;DHT22;3089;48.202;11.510;2022-08-01T11:06:40;26.00;91.60
6118;DHT22;3089;48.202;11.510;2022-08-01T11:09:25;26.40;92.70
6118;DHT22;3089;48.202;11.510;2022-08-01T11:12:05;26.30;91.40
6118;DHT22;3089;48.202;11.510;2022-08-01T11:15:17;27.10;90.80
6118;DHT22;3089;48.202;11.510;2022-08-01T11:17:58;27.30;90.60
6118;DHT22;3089;48.202;11.510;2022-08-01T11:20:29;26.50;90.90
6118;DHT22;3089;48.202;11.510;2022-08-01T11:23:15;27.10;91.10
6118;DHT22;3089;48.202;11.510;2022-08-01T11:26:09;27.00;88.60
6118;DHT22;3089;48.202;11.510;2022-08-01T11:28:39;27.00;89.90
6118;DHT22;3089;48.202;11.510;2022-08-01T11:31:28;27.50;90.30
6118;DHT22;3089;48.202;11.510;2022-08-01T11:34:03;27.80;90.20
6118;DHT22;3089;48.202;11.510;2022-08-01T11:36:33;27.80;89.60
6118;DHT22;3089;48.202;11.510;2022-08-01T11:39:21;28.10;88.60
6118;DHT22;3089;48.202;11.510;2022-08-01T11:41:50;27.50;90.00
6118;DHT22;3089;48.202;11.510;2022-08-01T11:44:21;27.30;90.20
6118;DHT22;3089;48.202;11.510;2022-08-01T11:47:00;27.70;88.60
6118;DHT22;3089;48.202;11.510;2022-08-01T11:49:56;28.10;87.60
6118;DHT22;3089;48.202;11.510;2022-08-01T11:52:28;28.00;90.90
6118;DHT22;3089;48.202;11.510;2022-08-01T11:54:57;27.90;89.70
6118;DHT22;3089;48.202;11.510;2022-08-01T11:57:27;28.20;87.70
6118;DHT22;3089;48.202;11.510;2022-08-01T12:00:04;28.50;86.70
6118;DHT22;3089;48.202;11.510;2022-08-01T12:02:34;28.10;86.60
6118;DHT22;3089;48.202;11.510;2022-08-01T12:05:05;28.20;86.70
6118;DHT22;3089;48.202;11.510;2022-08-01T12:07:40;28.00;86.50
6118;DHT22;3089;48.202;11.510;2022-08-01T12:10:10;28.00;90.20
6118;DHT22;3089;48.202;11.510;2022-08-01T12:12:43;27.90;88.10
6118;DHT22;3089;48.202;11.510;2022-08-01T12:15:12;28.10;88.00
6118;DHT22;3089;48.202;11.510;2022-08-01T12:17:42;28.20;87.10
6118;DHT22;3089;48.202;11.510;2022-08-01T12:20:24;28.20;86.70
6118;DHT22;3089;48.202;11.510;2022-08-01T12:23:03;28.30;87.60
6118;DHT22;3089;48.202;11.510;2022-08-01T12:25:32;27.50;87.50
6118;DHT22;3089;48.202;11.510;2022-08-01T12:28:01;27.70;86.50
6118;DHT22;3089;48.202;11.510;2022-08-01T12:30:30;28.20;85.40
6118;DHT22;3089;48.202;11.510;2022-08-01T12:33:02;28.50;85.20
6118;DHT22;3089;48.202;11.510;2022-08-01T12:35:31;28.40;84.70
6118;DHT22;3089;48.202;11.510;2022-08-01T12:38:02;28.20;86.40
6118;DHT22;3089;48.202;11.510;2022-08-01T12:40:31;27.90;87.50
6118;DHT22;3089;48.202;11.510;2022-08-01T12:43:01;27.70;86.80
6118;DHT22;3089;48.202;11.510;2022-08-01T12:45:32;28.10;87.10
6118;DHT22;3089;48.202;11.510;2022-08-01T12:48:05;27.90;85.60
6118;DHT22;3089;48.202;11.510;2022-08-01T12:50:37;28.20;90.30
6118;DHT22;3089;48.202;11.510;2022-08-01T12:53:08;28.00;86.50
6118;DHT22;3089;48.202;11.510;2022-08-01T12:55:47;27.70;86.00
6118;DHT22;3089;48.202;11.510;2022-08-01T12:58:31;27.50;87.20
6118;DHT22;3089;48.202;11.510;2022-08-01T13:01:03;27.00;85.10
6118;DHT22;3089;48.202;11.510;2022-08-01T13:03:32;26.70;85.80
6118;DHT22;3089;48.202;11.510;2022-08-01T13:06:00;26.60;87.70
6118;DHT22;3089;48.202;11.510;2022-08-01T13:08:32;26.70;86.10
6118;DHT22;3089;48.202;11.510;2022-08-01T13:11:02;26.70;87.30
6118;DHT22;3089;48.202;11.510;2022-08-01T13:13:38;26.50;86.50
6118;DHT22;3089;48.202;11.510;2022-08-01T13:16:07;26.60;89.00
6118;DHT22;3089;48.202;11.510;2022-08-01T13:18:47;26.60;85.80
6118;DHT22;3089;48.202;11.510;2022-08-01T13:21:17;26.40;88.70
6118;DHT22;3089;48.202;11.510;2022-08-01T13:24:03;26.50;87.70
6118;DHT22;3089;48.202;11.510;2022-08-01T13:26:39;26.70;88.20
6118;DHT22;3089;48.202;11.510;2022-08-01T13:29:08;26.60;90.50
6118;DHT22;3089;48.202;11.510;2022-08-01T13:31:37;26.40;91.00
6118;DHT22;3089;48.202;11.510;2022-08-01T13:34:05;26.50;90.60
6118;DHT22;3089;48.202;11.510;2022-08-01T13:36:34;26.60;90.70
6118;DHT22;3089;48.202;11.510;2022-08-01T13:39:04;26.70;90.50
6118;DHT22;3089;48.202;11.510;2022-08-01T13:41:50;26.40;90.50
6118;DHT22;3089;48.202;11.510;2022-08-01T13:44:18;26.20;88.50
6118;DHT22;3089;48.202;11.510;2022-08-01T13:46:46;26.50;89.50
6118;DHT22;3089;48.202;11.510;2022-08-01T13:49:17;26.40;86.90
6118;DHT22;3089;48.202;11.510;2022-08-01T13:51:48;26.50;87.30
6118;DHT22;3089;48.202;11.510;2022-08-01T13:54:18;26.20;90.30
6118;DHT22;3089;48.202;11.510;2022-08-01T13:56:46;26.40;89.50
6118;DHT22;3089;48.202;11.510;2022-08-01T13:59:14;26.20;84.50
6118;DHT22;3089;48.202;11.510;2022-08-01T14:01:42;26.10;86.80
6118;DHT22;3089;48.202;11.510;2022-08-01T14:04:10;26.20;90.40
6118;DHT22;3089;48.202;11.510;2022-08-01T14:06:38;26.20;86.60
6118;DHT22;3089;48.202;11.510;2022-08-01T14:09:07;26.30;90.60
6118;DHT22;3089;48.202;11.510;2022-08-01T14:11:45;26.40;90.10
6118;DHT22;3089;48.202;11.510;2022-08-01T14:14:13;26.50;89.40
6118;DHT22;3089;48.202;11.510;2022-08-01T14:16:42;26.50;90.60
6118;DHT22;3089;48.202;11.510;2022-08-01T14:19:11;26.50;90.30
6118;DHT22;3089;48.202;11.510;2022-08-01T14:21:39;26.60;90.60
6118;DHT22;3089;48.202;11.510;2022-08-01T14:24:07;26.60;90.30
6118;DHT22;3089;48.202;11.510;2022-08-01T14:26:36;26.70;90.40
6118;DHT22;3089;48.202;11.510;2022-08-01T14:29:05;26.80;90.40
6118;DHT22;3089;48.202;11.510;2022-08-01T14:31:33;26.70;91.10
6118;DHT22;3089;48.202;11.510;2022-08-01T14:34:01;26.50;91.20
6118;DHT22;3089;48.202;11.510;2022-08-01T14:36:29;26.70;90.70
6118;DHT22;3089;48.202;11.510;2022-08-01T14:39:03;26.60;91.00
6118;DHT22;3089;48.202;11.510;2022-08-01T14:41:32;26.40;92.20
6118;DHT22;3089;48.202;11.510;2022-08-01T14:44:00;26.30;91.80
6118;DHT22;3089;48.202;11.510;2022-08-01T14:46:29;26.40;91.90
6118;DHT22;3089;48.202;11.510;2022-08-01T14:48:59;26.50;91.10
6118;DHT22;3089;48.202;11.510;2022-08-01T14:51:27;26.40;92.00
6118;DHT22;3089;48.202;11.510;2022-08-01T14:53:59;26.40;90.90
6118;DHT22;3089;48.202;11.510;2022-08-01T14:56:29;25.80;92.40
6118;DHT22;3089;48.202;11.510;2022-08-01T14:58:57;25.70;92.00
6118;DHT22;3089;48.202;11.510;2022-08-01T15:01:25;25.70;91.30
6118;DHT22;3089;48.202;11.510;2022-08-01T15:03:54;25.80;92.00
6118;DHT22;3089;48.202;11.510;2022-08-01T15:06:22;25.80;91.70
6118;DHT22;3089;48.202;11.510;2022-08-01T15:08:50;25.80;92.00
6118;DHT22;3089;48.202;11.510;2022-08-01T15:11:18;25.70;91.70
6118;DHT22;3089;48.202;11.510;2022-08-01T15:13:46;25.40;91.30
6118;DHT22;3089;48.202;11.510;2022-08-01T15:16:34;25.30;92.60
6118;DHT22;3089;48.202;11.510;2022-08-01T15:19:04;25.20;93.50
6118;DHT22;3089;48.202;11.510;2022-08-01T15:21:32;25.30;93.90
6118;DHT22;3089;48.202;11.510;2022-08-01T15:24:08;24.90;94.80
6118;DHT22;3089;48.202;11.510;2022-08-01T15:26:36;24.80;95.70
6118;DHT22;3089;48.202;11.510;2022-08-01T15:29:04;24.80;95.50
6118;DHT22;3089;48.202;11.510;2022-08-01T15:31:35;24.80;95.70
6118;DHT22;3089;48.202;11.510;2022-08-01T15:34:06;24.50;96.00
6118;DHT22;3089;48.202;11.510;2022-08-01T15:36:34;24.30;96.20
6118;DHT22;3089;48.202;11.510;2022-08-01T15:39:07;24.50;95.80
6118;DHT22;3089;48.202;11.510;2022-08-01T15:41:35;24.60;97.40
6118;DHT22;3089;48.202;11.510;2022-08-01T15:44:03;24.80;95.70
6118;DHT22;3089;48.202;11.510;2022-08-01T15:46:31;24.70;96.70
6118;DHT22;3089;48.202;11.510;2022-08-01T15:49:02;24.80;95.90
6118;DHT22;3089;48.202;11.510;2022-08-01T15:51:32;25.00;95.60
6118;DHT22;3089;48.202;11.510;2022-08-01T15:54:00;24.80;95.90
6118;DHT22;3089;48.202;11.510;2022-08-01T15:56:29;25.10;95.60
6118;DHT22;3089;48.202;11.510;2022-08-01T15:58:57;25.20;95.50
6118;DHT22;3089;48.202;11.510;2022-08-01T16:01:25;25.10;95.60
6118;DHT22;3089;48.202;11.510;2022-08-01T16:03:54;25.10;95.70
6118;DHT22;3089;48.202;11.510;2022-08-01T16:06:23;25.10;95.70
6118;DHT22;3089;48.202;11.510;2022-08-01T16:08:52;25.10;95.80
6118;DHT22;3089;48.202;11.510;2022-08-01T16:11:20;25.10;95.80
6118;DHT22;3089;48.202;11.510;2022-08-01T16:13:49;25.10;95.80